Time;durP1;ratioP1;P1;durP2;ratioP2;P2;SDS_P1;SDS_P2;PMS_P1;PMS_P2;Temp;Humidity;BMP_temperature;BMP_pressure;BME280_temperature;BME280_humidity;BME280_pressure;Samples;Min_cycle;Max_cycle;Signal;HPM_P1;HPM_P2
2022/11/02 00:01:00;;;;;;;11.77;8.50;;;10.10;99.90;;;;;;5209458;28;20430;-49
2022/11/02 00:03:31;;;;;;;9.90;8.20;;;10.10;99.90;;;;;;5229850;28;21009;-48
2022/11/02 00:06:01;;;;;;;11.60;7.83;;;10.10;99.90;;;;;;5202590;28;20454;-48
2022/11/02 00:08:32;;;;;;;9.33;7.50;;;10.10;99.90;;;;;;5229335;28;20276;-48
2022/11/02 00:11:02;;;;;;;11.00;8.47;;;10.00;99.90;;;;;;5227922;28;20617;-48
2022/11/02 00:13:33;;;;;;;15.93;8.10;;;9.90;99.90;;;;;;5234500;28;20187;-48
2022/11/02 00:16:07;;;;;;;9.13;8.17;;;10.00;99.90;;;;;;5205981;28;20294;-51
2022/11/02 00:18:38;;;;;;;10.07;8.20;;;10.00;99.90;;;;;;5237943;28;20214;-48
2022/11/02 00:21:10;;;;;;;14.17;9.67;;;10.00;99.90;;;;;;5241016;28;20436;-47
2022/11/02 00:23:41;;;;;;;9.03;7.30;;;10.00;99.90;;;;;;5228571;28;20793;-47
2022/11/02 00:26:11;;;;;;;10.03;8.70;;;10.00;99.90;;;;;;5228600;28;20492;-47
2022/11/02 00:28:42;;;;;;;18.77;8.90;;;10.10;99.90;;;;;;5228205;28;20215;-47
2022/11/02 00:31:13;;;;;;;9.07;8.13;;;10.10;99.90;;;;;;5206144;28;20187;-48
2022/11/02 00:33:43;;;;;;;11.70;7.90;;;10.00;99.90;;;;;;5236452;28;20187;-46
2022/11/02 00:36:14;;;;;;;13.30;7.00;;;10.00;99.90;;;;;;5212010;28;20235;-47
2022/11/02 00:38:44;;;;;;;8.80;6.33;;;9.90;99.90;;;;;;5212777;28;20213;-47
2022/11/02 00:41:18;;;;;;;8.73;6.10;;;9.90;99.90;;;;;;5216608;28;20214;-47
2022/11/02 00:43:48;;;;;;;12.60;7.73;;;9.80;99.90;;;;;;5228518;28;20594;-47
2022/11/02 00:46:19;;;;;;;9.27;7.23;;;9.80;99.90;;;;;;5233842;28;20509;-46
2022/11/02 00:48:49;;;;;;;10.47;7.50;;;9.70;99.90;;;;;;5223736;28;20183;-48
2022/11/02 00:51:20;;;;;;;13.23;8.93;;;9.80;99.90;;;;;;5230154;28;20240;-47
2022/11/02 00:53:50;;;;;;;8.83;7.93;;;9.70;99.90;;;;;;5230436;28;20179;-48
2022/11/02 00:56:21;;;;;;;13.60;7.43;;;9.70;99.90;;;;;;5207725;28;20237;-48
2022/11/02 00:58:52;;;;;;;10.70;7.80;;;9.70;99.90;;;;;;5218784;28;20275;-47
2022/11/02 01:01:22;;;;;;;11.50;8.07;;;9.60;99.90;;;;;;5207144;28;20179;-47
2022/11/02 01:03:55;;;;;;;9.20;8.00;;;9.60;99.90;;;;;;5204765;28;20656;-48
2022/11/02 01:06:26;;;;;;;12.87;7.77;;;9.60;99.90;;;;;;5211063;28;20576;-48
2022/11/02 01:08:57;;;;;;;8.47;7.60;;;9.60;99.90;;;;;;5226296;28;20435;-47
2022/11/02 01:11:27;;;;;;;9.87;7.50;;;9.70;99.90;;;;;;5227479;28;20647;-47
2022/11/02 01:13:58;;;;;;;10.33;6.90;;;9.80;99.90;;;;;;5232926;28;20595;-46
2022/11/02 01:16:28;;;;;;;10.03;7.03;;;9.70;99.90;;;;;;5202352;28;20623;-49
2022/11/02 01:18:59;;;;;;;9.50;6.77;;;9.70;99.90;;;;;;5209079;28;20187;-47
2022/11/02 01:21:30;;;;;;;8.97;5.97;;;9.60;99.90;;;;;;5217995;28;20214;-48
2022/11/02 01:24:00;;;;;;;7.30;6.60;;;9.50;99.90;;;;;;5235232;28;20187;-52
2022/11/02 01:26:31;;;;;;;7.33;6.50;;;9.60;99.90;;;;;;5211660;28;20211;-48
2022/11/02 01:29:01;;;;;;;8.30;6.17;;;9.60;99.90;;;;;;5226755;28;20249;-48
2022/11/02 01:31:32;;;;;;;7.73;5.83;;;9.50;99.90;;;;;;5193319;28;20197;-48
2022/11/02 01:34:03;;;;;;;7.50;6.70;;;9.50;99.90;;;;;;5227668;28;20198;-48
2022/11/02 01:36:33;;;;;;;9.57;6.63;;;9.60;99.90;;;;;;5227294;28;20301;-48
2022/11/02 01:39:04;;;;;;;5.77;5.13;;;9.70;99.90;;;;;;5208968;28;20631;-50
2022/11/02 01:41:34;;;;;;;5.23;4.73;;;9.50;99.90;;;;;;5214286;28;20237;-47
2022/11/02 01:44:25;;;;;;;9.47;5.30;;;9.30;99.90;;;;;;5226599;28;20194;-47
2022/11/02 01:47:25;;;;;;;5.20;4.70;;;9.40;99.90;;;;;;5228037;28;20214;-48
2022/11/02 01:50:10;;;;;;;11.13;5.90;;;9.40;99.90;;;;;;5215618;28;20429;-47
2022/11/02 01:52:41;;;;;;;5.67;5.17;;;9.30;99.90;;;;;;5223953;28;20516;-47
2022/11/02 01:55:18;;;;;;;5.13;4.63;;;9.40;99.90;;;;;;5226869;28;20626;-47
2022/11/02 01:57:55;;;;;;;5.23;4.83;;;9.30;99.90;;;;;;5204802;28;20188;-47
2022/11/02 02:00:26;;;;;;;7.00;4.97;;;9.20;99.90;;;;;;5198197;28;20466;-49
2022/11/02 02:03:15;;;;;;;5.30;4.67;;;9.20;99.90;;;;;;5208965;28;20847;-47
2022/11/02 02:05:56;;;;;;;10.57;4.70;;;9.10;99.90;;;;;;5222984;28;20465;-47
2022/11/02 02:08:28;;;;;;;10.53;4.90;;;9.10;99.90;;;;;;5208863;28;20437;-47
2022/11/02 02:10:59;;;;;;;6.50;4.33;;;9.00;99.90;;;;;;5222240;28;20448;-48
2022/11/02 02:13:29;;;;;;;8.60;3.73;;;9.00;99.90;;;;;;5215060;28;20417;-47
2022/11/02 02:16:26;;;;;;;5.97;5.47;;;9.00;99.90;;;;;;5208551;28;20666;-48
2022/11/02 02:18:59;;;;;;;6.53;4.10;;;9.00;99.90;;;;;;5204804;28;20187;-47
2022/11/02 02:21:57;;;;;;;7.10;4.10;;;9.20;99.90;;;;;;5225580;28;20418;-48
2022/11/02 02:24:30;;;;;;;3.53;3.20;;;9.20;99.90;;;;;;5208007;28;20417;-48
2022/11/02 02:27:17;;;;;;;9.40;4.60;;;9.00;99.90;;;;;;5226969;28;21055;-47
2022/11/02 02:30:04;;;;;;;5.20;4.70;;;9.00;99.90;;;;;;5226143;28;20429;-48
2022/11/02 02:33:00;;;;;;;3.70;3.60;;;9.00;99.90;;;;;;5225486;28;20467;-48
2022/11/02 02:35:45;;;;;;;7.47;4.13;;;9.10;99.90;;;;;;5208809;28;20523;-47
2022/11/02 02:38:31;;;;;;;3.40;3.10;;;9.10;99.90;;;;;;5208985;28;21012;-47
2022/11/02 02:41:17;;;;;;;6.67;3.13;;;9.00;99.90;;;;;;5193662;28;20865;-50
2022/11/02 02:43:56;;;;;;;3.43;2.67;;;9.20;99.90;;;;;;5228613;28;20445;-48
2022/11/02 02:46:33;;;;;;;3.60;2.77;;;9.20;99.90;;;;;;5203975;28;20555;-50
2022/11/02 02:49:09;;;;;;;7.73;2.97;;;9.10;99.90;;;;;;5224314;28;20425;-50
2022/11/02 02:51:41;;;;;;;10.33;3.10;;;9.10;99.90;;;;;;5225715;28;20940;-51
2022/11/02 02:54:17;;;;;;;1.97;1.87;;;9.10;99.90;;;;;;5205568;28;20428;-48
2022/11/02 02:56:56;;;;;;;8.10;3.20;;;9.10;99.90;;;;;;5186076;28;20936;-48
2022/11/02 02:59:31;;;;;;;3.63;2.97;;;9.00;99.90;;;;;;5195601;28;20527;-48
2022/11/02 03:02:07;;;;;;;7.77;2.97;;;9.10;99.90;;;;;;5222396;28;20445;-49
2022/11/02 03:04:38;;;;;;;2.30;2.10;;;9.30;99.90;;;;;;5216606;28;20439;-49
2022/11/02 03:07:13;;;;;;;3.27;2.73;;;9.20;99.90;;;;;;5207332;28;20980;-48
2022/11/02 03:09:55;;;;;;;2.50;2.40;;;9.30;99.90;;;;;;5211069;28;20274;-49
2022/11/02 03:12:50;;;;;;;5.33;1.90;;;9.30;99.90;;;;;;5232530;28;20409;-48
2022/11/02 03:15:20;;;;;;;4.43;2.47;;;9.20;99.90;;;;;;5230061;28;20447;-50
2022/11/02 03:18:17;;;;;;;4.03;2.83;;;9.30;99.90;;;;;;5207798;28;20517;-48
2022/11/02 03:21:02;;;;;;;3.77;2.30;;;9.40;99.90;;;;;;5192012;28;20579;-48
2022/11/02 03:23:53;;;;;;;3.50;2.50;;;9.60;99.90;;;;;;5201002;28;20771;-49
2022/11/02 03:26:28;;;;;;;3.97;2.27;;;9.50;99.90;;;;;;5211108;28;20518;-49
2022/11/02 03:29:08;;;;;;;3.40;2.30;;;9.30;99.90;;;;;;5229464;28;20429;-49
2022/11/02 03:31:50;;;;;;;2.40;2.20;;;9.20;99.90;;;;;;5207625;28;20862;-48
2022/11/02 03:34:42;;;;;;;1.90;1.80;;;9.20;99.90;;;;;;5210238;28;20425;-48
2022/11/02 03:37:29;;;;;;;2.37;2.20;;;9.10;99.90;;;;;;5208366;28;20434;-49
2022/11/02 03:40:28;;;;;;;4.77;1.80;;;9.10;99.90;;;;;;5207126;28;20434;-49
2022/11/02 03:43:03;;;;;;;5.77;2.17;;;9.10;99.90;;;;;;5238497;28;20437;-49
2022/11/02 03:45:46;;;;;;;5.27;2.33;;;9.00;99.90;;;;;;5229120;28;20443;-48
2022/11/02 03:48:18;;;;;;;4.90;2.40;;;9.20;99.90;;;;;;5224027;28;20495;-49
2022/11/02 03:50:51;;;;;;;16.63;2.63;;;9.10;99.90;;;;;;5210693;28;21025;-50
2022/11/02 03:53:31;;;;;;;2.17;2.00;;;9.00;99.90;;;;;;5219664;28;20437;-49
2022/11/02 03:56:07;;;;;;;3.70;2.60;;;9.00;99.90;;;;;;5211106;28;20490;-48
2022/11/02 03:58:37;;;;;;;2.37;2.13;;;9.00;99.90;;;;;;5225390;28;20853;-54
2022/11/02 04:01:09;;;;;;;2.73;1.93;;;9.00;99.90;;;;;;5236543;28;20468;-47
2022/11/02 04:03:43;;;;;;;5.23;2.13;;;9.00;99.90;;;;;;5227732;28;20593;-48
2022/11/02 04:06:14;;;;;;;5.17;2.60;;;9.20;99.90;;;;;;5211593;28;20456;-49
2022/11/02 04:08:48;;;;;;;7.10;2.40;;;9.10;99.90;;;;;;5204487;28;20445;-50
2022/11/02 04:19:46;;;;;;;2.80;2.17;;;8.90;99.90;;;;;;5217982;28;20495;-50
2022/11/02 04:25:17;;;;;;;2.10;1.97;;;9.00;99.90;;;;;;5228779;28;20195;-48
2022/11/02 04:27:50;;;;;;;3.50;2.57;;;8.90;99.90;;;;;;5228743;28;20533;-48
2022/11/02 04:30:22;;;;;;;4.33;1.80;;;8.90;99.90;;;;;;5211161;28;20433;-48
2022/11/02 04:35:41;;;;;;;5.33;2.63;;;8.80;99.90;;;;;;5224546;28;20475;-51
2022/11/02 04:43:50;;;;;;;5.70;2.83;;;8.70;99.90;;;;;;5227861;28;20438;-48
2022/11/02 04:46:22;;;;;;;4.97;2.37;;;8.60;99.90;;;;;;5227649;28;20465;-48
2022/11/02 04:48:53;;;;;;;8.73;3.07;;;8.60;99.90;;;;;;5209742;28;20266;-49
2022/11/02 04:51:27;;;;;;;5.23;2.70;;;8.60;99.90;;;;;;5226719;28;20452;-49
2022/11/02 04:53:58;;;;;;;8.07;2.60;;;8.60;99.90;;;;;;5209324;28;20439;-49
2022/11/02 04:56:29;;;;;;;6.50;2.57;;;8.60;99.90;;;;;;5209899;28;20532;-48
2022/11/02 04:59:00;;;;;;;2.63;2.20;;;8.50;99.90;;;;;;5219992;28;20182;-49
2022/11/02 05:01:31;;;;;;;3.50;2.43;;;8.50;99.90;;;;;;5223924;28;20582;-48
2022/11/02 05:04:01;;;;;;;2.97;2.30;;;8.60;99.90;;;;;;5225033;28;20948;-48
2022/11/02 05:06:32;;;;;;;7.97;3.03;;;8.50;99.90;;;;;;5210056;28;20211;-48
2022/11/02 05:09:02;;;;;;;7.03;2.37;;;8.50;99.90;;;;;;5215674;28;20275;-48
2022/11/02 05:11:33;;;;;;;5.77;2.53;;;8.40;99.90;;;;;;5209457;28;20187;-51
2022/11/02 05:14:03;;;;;;;5.00;2.80;;;8.40;99.90;;;;;;5230215;28;20622;-49
2022/11/02 05:16:34;;;;;;;3.27;2.27;;;8.40;99.90;;;;;;5201101;28;20202;-49
2022/11/02 05:19:04;;;;;;;4.10;2.00;;;8.40;99.90;;;;;;5227591;28;20179;-49
2022/11/02 05:21:35;;;;;;;9.50;2.93;;;8.40;99.90;;;;;;5241072;28;20179;-50
2022/11/02 05:24:06;;;;;;;10.93;2.93;;;8.40;99.90;;;;;;5221559;28;20225;-47
2022/11/02 05:26:36;;;;;;;5.20;2.00;;;8.40;99.90;;;;;;5207082;28;20210;-48
2022/11/02 05:29:07;;;;;;;6.97;2.13;;;8.50;99.90;;;;;;5227383;28;20195;-48
2022/11/02 05:31:38;;;;;;;5.20;2.80;;;8.50;99.90;;;;;;5220626;28;20206;-50
2022/11/02 05:34:09;;;;;;;2.60;1.90;;;8.50;99.90;;;;;;5225655;28;20797;-48
2022/11/02 05:36:39;;;;;;;3.13;2.93;;;8.50;99.90;;;;;;5213784;28;20638;-47
2022/11/02 05:39:10;;;;;;;7.03;2.13;;;8.50;99.90;;;;;;5215397;28;20241;-49
2022/11/02 05:41:40;;;;;;;10.73;2.23;;;8.50;99.90;;;;;;5208070;28;20542;-49
2022/11/02 05:44:11;;;;;;;4.97;3.00;;;8.70;99.90;;;;;;5205298;28;20201;-50
2022/11/02 05:46:42;;;;;;;10.50;2.20;;;8.80;99.90;;;;;;5226959;28;20210;-48
2022/11/02 05:49:13;;;;;;;5.37;2.20;;;8.70;99.90;;;;;;5226551;28;20183;-47
2022/11/02 05:51:43;;;;;;;4.10;2.07;;;8.70;99.90;;;;;;5231118;28;20429;-47
2022/11/02 05:54:14;;;;;;;4.63;1.53;;;8.70;99.90;;;;;;5226705;28;20572;-50
2022/11/02 05:56:44;;;;;;;5.00;2.07;;;8.60;99.90;;;;;;5229376;28;20342;-48
2022/11/02 05:59:15;;;;;;;8.80;2.60;;;8.70;99.90;;;;;;5231425;28;20176;-49
2022/11/02 06:01:45;;;;;;;12.07;2.30;;;8.50;99.90;;;;;;5203081;28;20226;-49
2022/11/02 06:04:16;;;;;;;2.97;2.73;;;8.50;99.90;;;;;;5207238;28;20686;-49
2022/11/02 06:06:46;;;;;;;2.87;2.20;;;8.60;99.90;;;;;;5226645;28;20225;-49
2022/11/02 06:09:17;;;;;;;6.67;2.23;;;8.80;99.90;;;;;;5226303;28;20265;-48
2022/11/02 06:11:47;;;;;;;9.00;2.60;;;8.80;99.90;;;;;;5225779;28;20206;-50
2022/11/02 06:14:18;;;;;;;7.00;2.30;;;8.70;99.90;;;;;;5208004;28;20179;-50
2022/11/02 06:16:49;;;;;;;16.43;2.57;;;8.70;99.90;;;;;;5225407;28;20211;-48
2022/11/02 06:19:19;;;;;;;16.70;2.20;;;8.70;99.90;;;;;;5226218;28;20265;-48
2022/11/02 06:21:50;;;;;;;5.77;2.33;;;8.90;99.90;;;;;;5204556;28;20205;-49
2022/11/02 06:24:20;;;;;;;6.60;2.70;;;9.00;99.90;;;;;;5212437;28;20190;-49
2022/11/02 06:26:51;;;;;;;5.60;1.77;;;8.90;99.90;;;;;;5198904;28;20215;-48
2022/11/02 06:29:21;;;;;;;4.47;2.33;;;8.90;99.90;;;;;;5222541;28;20187;-48
2022/11/02 06:31:52;;;;;;;7.43;2.73;;;9.00;99.90;;;;;;5219339;28;20172;-47
2022/11/02 06:34:23;;;;;;;4.20;2.17;;;9.20;99.90;;;;;;5200539;28;20673;-49
2022/11/02 06:36:53;;;;;;;8.30;2.40;;;9.30;99.90;;;;;;5200343;28;20598;-47
2022/11/02 06:39:24;;;;;;;6.20;2.27;;;9.50;99.90;;;;;;5202902;28;20187;-49
2022/11/02 06:41:54;;;;;;;5.13;2.43;;;9.80;99.90;;;;;;5204232;28;20190;-49
2022/11/02 06:44:25;;;;;;;2.93;2.10;;;9.80;99.90;;;;;;5225614;28;20186;-50
2022/11/02 06:46:55;;;;;;;14.00;2.97;;;9.90;99.90;;;;;;5229196;28;20215;-49
2022/11/02 06:49:26;;;;;;;5.77;2.63;;;10.10;99.90;;;;;;5223456;28;20182;-50
2022/11/02 06:51:56;;;;;;;14.10;3.10;;;10.30;99.90;;;;;;5221472;28;20290;-49
2022/11/02 06:54:27;;;;;;;11.63;3.60;;;10.80;99.90;;;;;;5223827;28;20175;-49
2022/11/02 06:56:58;;;;;;;3.70;2.93;;;11.30;99.90;;;;;;5222525;28;20209;-49
2022/11/02 06:59:28;;;;;;;8.93;3.00;;;11.40;99.90;;;;;;5203236;28;20200;-47
2022/11/02 07:01:59;;;;;;;9.67;2.47;;;11.50;99.90;;;;;;5201344;28;20178;-47
2022/11/02 07:04:29;;;;;;;10.83;3.07;;;11.20;99.90;;;;;;5225967;28;22296;-47
2022/11/02 07:07:00;;;;;;;5.93;2.83;;;10.80;99.90;;;;;;5232921;28;20538;-51
2022/11/02 07:09:31;;;;;;;14.27;2.67;;;10.40;99.90;;;;;;5208733;28;20539;-50
2022/11/02 07:12:02;;;;;;;8.30;2.83;;;10.30;99.90;;;;;;5213544;28;20179;-48
2022/11/02 07:14:32;;;;;;;4.83;1.87;;;10.10;99.90;;;;;;5233131;28;20610;-49
2022/11/02 07:17:03;;;;;;;5.80;2.50;;;10.10;99.90;;;;;;5227874;28;20229;-49
2022/11/02 07:19:33;;;;;;;8.07;2.73;;;10.20;99.90;;;;;;5211741;28;20219;-48
2022/11/02 07:22:04;;;;;;;6.80;2.40;;;9.90;99.90;;;;;;5212579;28;20190;-47
2022/11/02 07:24:35;;;;;;;3.50;1.73;;;9.80;99.90;;;;;;5229410;28;20183;-48
2022/11/02 07:27:05;;;;;;;6.90;2.40;;;9.90;99.90;;;;;;5225094;28;20766;-48
2022/11/02 07:29:36;;;;;;;9.80;2.97;;;9.90;99.90;;;;;;5222307;28;20548;-48
2022/11/02 07:32:07;;;;;;;4.70;2.77;;;9.90;99.90;;;;;;5218041;28;20518;-50
2022/11/02 07:34:38;;;;;;;5.77;2.20;;;10.00;99.90;;;;;;5228449;28;20170;-49
2022/11/02 07:37:08;;;;;;;12.00;2.47;;;10.00;99.90;;;;;;5226473;28;20582;-49
2022/11/02 07:39:39;;;;;;;4.80;2.53;;;10.20;99.90;;;;;;5221767;28;20210;-50
2022/11/02 07:42:09;;;;;;;11.77;2.27;;;10.30;99.90;;;;;;5226255;28;20187;-49
2022/11/02 07:44:40;;;;;;;4.47;2.30;;;10.40;99.90;;;;;;5221666;28;20175;-49
2022/11/02 07:47:11;;;;;;;9.27;2.47;;;10.50;99.90;;;;;;5226480;28;20198;-49
2022/11/02 07:49:41;;;;;;;3.17;2.27;;;10.80;99.90;;;;;;5221901;28;20276;-52
2022/11/02 07:52:12;;;;;;;6.30;2.37;;;11.00;99.90;;;;;;5201976;28;20179;-51
2022/11/02 07:54:42;;;;;;;14.47;3.03;;;11.20;99.90;;;;;;5206268;28;20186;-49
2022/11/02 07:57:13;;;;;;;4.13;2.23;;;11.50;99.90;;;;;;5223159;28;20205;-48
2022/11/02 07:59:43;;;;;;;4.50;2.10;;;11.70;99.90;;;;;;5222370;28;20245;-50
2022/11/02 08:02:14;;;;;;;7.77;2.60;;;12.00;99.90;;;;;;5225253;28;20191;-53
2022/11/02 08:04:44;;;;;;;9.63;2.27;;;12.30;99.90;;;;;;5206733;28;20214;-52
2022/11/02 08:07:15;;;;;;;6.00;1.70;;;12.50;99.90;;;;;;5228451;28;20199;-48
2022/11/02 08:09:46;;;;;;;6.17;2.67;;;12.70;99.90;;;;;;5205195;28;20183;-49
2022/11/02 08:12:16;;;;;;;5.03;2.97;;;12.80;99.90;;;;;;5223901;28;20175;-48
2022/11/02 08:14:47;;;;;;;3.27;2.53;;;12.80;99.90;;;;;;5208641;28;20652;-51
2022/11/02 08:17:17;;;;;;;7.00;3.20;;;12.90;99.90;;;;;;5205883;28;20206;-51
2022/11/02 08:19:48;;;;;;;5.87;2.30;;;13.00;99.90;;;;;;5225728;28;20546;-50
2022/11/02 08:22:18;;;;;;;6.70;2.00;;;13.00;99.90;;;;;;5209197;28;20183;-51
2022/11/02 08:24:49;;;;;;;6.73;1.93;;;13.10;99.90;;;;;;5209399;28;20269;-53
2022/11/02 08:27:20;;;;;;;6.73;2.50;;;13.00;99.90;;;;;;5208506;28;20210;-53
2022/11/02 08:29:51;;;;;;;5.87;1.97;;;13.10;99.90;;;;;;5207124;28;20178;-52
2022/11/02 08:32:22;;;;;;;5.07;2.30;;;13.30;99.90;;;;;;5220010;28;20210;-51
2022/11/02 08:34:52;;;;;;;8.63;2.43;;;13.30;99.90;;;;;;5221110;28;20457;-53
2022/11/02 08:37:23;;;;;;;10.83;2.13;;;13.30;99.90;;;;;;5208125;28;20213;-52
2022/11/02 08:39:53;;;;;;;2.40;1.90;;;13.30;99.90;;;;;;5210364;28;20584;-51
2022/11/02 08:42:24;;;;;;;3.27;2.00;;;13.20;99.90;;;;;;5226518;28;20218;-52
2022/11/02 08:44:55;;;;;;;9.17;2.47;;;13.30;99.90;;;;;;5227305;28;20579;-51
2022/11/02 08:47:25;;;;;;;10.00;2.57;;;13.20;99.90;;;;;;5226901;28;20863;-52
2022/11/02 08:49:56;;;;;;;7.50;2.87;;;13.10;99.90;;;;;;5221449;28;20183;-52
2022/11/02 08:52:26;;;;;;;4.30;1.83;;;13.00;99.90;;;;;;5206790;28;21480;-52
2022/11/02 08:54:57;;;;;;;7.10;2.53;;;13.10;99.90;;;;;;5227574;28;20203;-53
2022/11/02 08:57:27;;;;;;;11.53;2.30;;;13.10;99.90;;;;;;5205765;28;20179;-53
2022/11/02 08:59:58;;;;;;;6.73;2.00;;;13.00;99.90;;;;;;5223072;28;20194;-53
2022/11/02 09:02:29;;;;;;;4.63;2.03;;;12.90;99.90;;;;;;5205715;28;20232;-53
2022/11/02 09:04:59;;;;;;;13.43;2.37;;;12.70;99.90;;;;;;5207851;28;20712;-52
2022/11/02 09:07:30;;;;;;;5.50;3.00;;;12.60;99.90;;;;;;5191837;28;20206;-49
2022/11/02 09:10:00;;;;;;;6.90;2.10;;;12.50;99.90;;;;;;5197107;28;20202;-51
2022/11/02 09:12:31;;;;;;;4.10;2.10;;;12.40;99.90;;;;;;5198250;28;20183;-51
2022/11/02 09:15:02;;;;;;;14.47;3.10;;;12.50;99.90;;;;;;5221670;28;20207;-51
2022/11/02 09:17:32;;;;;;;14.63;2.60;;;12.50;99.90;;;;;;5224394;28;20190;-52
2022/11/02 09:20:03;;;;;;;2.50;1.90;;;12.50;99.90;;;;;;5173188;28;20210;-52
2022/11/02 09:22:34;;;;;;;4.03;1.80;;;12.50;99.90;;;;;;5224507;28;20191;-54
2022/11/02 09:25:05;;;;;;;1.83;1.73;;;12.70;99.90;;;;;;5224182;28;20207;-51
2022/11/02 09:27:36;;;;;;;6.40;2.00;;;12.70;99.90;;;;;;5220523;28;20803;-54
2022/11/02 09:30:08;;;;;;;9.50;2.03;;;12.90;99.90;;;;;;5220700;28;20477;-51
2022/11/02 09:32:39;;;;;;;5.60;1.83;;;13.00;99.90;;;;;;5207234;28;20183;-51
2022/11/02 09:35:10;;;;;;;4.30;2.27;;;13.10;99.90;;;;;;5222982;28;20463;-50
2022/11/02 09:37:43;;;;;;;8.17;2.47;;;13.10;99.90;;;;;;5225337;28;20190;-53
2022/11/02 09:40:22;;;;;;;7.53;2.60;;;13.10;99.90;;;;;;5204677;28;20469;-52
2022/11/02 09:43:07;;;;;;;6.00;2.37;;;13.20;99.90;;;;;;5205987;28;20483;-50
2022/11/02 09:45:47;;;;;;;11.20;2.77;;;13.20;99.90;;;;;;5203089;28;20500;-51
2022/11/02 09:48:24;;;;;;;11.70;2.83;;;13.20;99.90;;;;;;5224859;28;20453;-53
2022/11/02 09:51:02;;;;;;;13.20;2.63;;;13.30;99.90;;;;;;5219484;28;20912;-54
2022/11/02 09:53:43;;;;;;;14.53;3.50;;;13.40;99.90;;;;;;5202543;28;20487;-53
2022/11/02 09:56:18;;;;;;;12.47;3.10;;;13.40;99.90;;;;;;5199188;28;20457;-51
2022/11/02 09:59:23;;;;;;;9.07;2.30;;;13.40;99.90;;;;;;5223792;28;20429;-51
2022/11/02 10:02:17;;;;;;;3.67;2.23;;;13.50;99.90;;;;;;5204566;28;20449;-51
2022/11/02 10:05:02;;;;;;;12.37;2.63;;;13.60;99.90;;;;;;5215802;28;20452;-52
2022/11/02 10:07:41;;;;;;;6.13;2.27;;;13.80;99.90;;;;;;5223531;28;20469;-52
2022/11/02 10:10:30;;;;;;;5.30;2.50;;;13.90;99.90;;;;;;5200675;28;20441;-46
2022/11/02 10:13:30;;;;;;;7.07;2.67;;;14.00;99.90;;;;;;5216726;28;20468;-49
2022/11/02 10:16:07;;;;;;;9.03;2.27;;;14.10;99.90;;;;;;5221715;28;20507;-49
2022/11/02 10:18:40;;;;;;;7.00;1.97;;;14.10;99.90;;;;;;5222280;28;20449;-51
2022/11/02 10:21:30;;;;;;;4.50;2.53;;;14.30;99.90;;;;;;5203336;28;20462;-49
2022/11/02 10:24:34;;;;;;;7.20;2.30;;;14.30;99.90;;;;;;5225077;28;20445;-49
2022/11/02 10:27:25;;;;;;;7.57;2.30;;;14.30;99.90;;;;;;5204677;28;20464;-49
2022/11/02 10:29:56;;;;;;;1.60;1.50;;;14.30;99.90;;;;;;5220724;28;20437;-48
2022/11/02 10:32:28;;;;;;;8.87;2.20;;;14.40;99.90;;;;;;5203646;28;20457;-49
2022/11/02 10:35:02;;;;;;;5.07;2.67;;;14.50;99.90;;;;;;5201232;28;20214;-51
2022/11/02 10:37:47;;;;;;;4.80;2.00;;;14.50;99.90;;;;;;5206531;28;20524;-50
2022/11/02 10:40:40;;;;;;;7.43;2.00;;;14.60;99.90;;;;;;5213704;28;20848;-52
2022/11/02 10:43:38;;;;;;;8.77;1.97;;;14.60;99.90;;;;;;5220644;28;20460;-50
2022/11/02 10:46:47;;;;;;;3.77;1.93;;;14.80;99.90;;;;;;5222677;28;20548;-51
2022/11/02 10:49:37;;;;;;;6.07;1.80;;;14.80;99.90;;;;;;5205209;28;20433;-49
2022/11/02 10:52:13;;;;;;;5.60;2.47;;;14.80;99.90;;;;;;5220889;28;20444;-49
2022/11/02 10:54:44;;;;;;;4.27;1.80;;;14.90;99.90;;;;;;5222543;28;20940;-50
2022/11/02 10:57:21;;;;;;;7.03;2.57;;;15.00;99.90;;;;;;5218218;28;20441;-49
2022/11/02 11:00:21;;;;;;;11.50;2.10;;;15.00;99.90;;;;;;5198251;28;20187;-51
2022/11/02 11:03:07;;;;;;;4.60;1.57;;;15.00;99.90;;;;;;5222973;28;20453;-50
2022/11/02 11:05:50;;;;;;;4.40;1.90;;;15.00;99.90;;;;;;5219675;28;20477;-48
2022/11/02 11:08:39;;;;;;;2.63;1.87;;;15.00;99.90;;;;;;5212721;28;21029;-52
2022/11/02 11:11:22;;;;;;;5.30;2.67;;;15.20;99.90;;;;;;5192410;28;20434;-49
2022/11/02 11:14:01;;;;;;;3.60;2.93;;;15.40;99.90;;;;;;5206659;28;20418;-51
2022/11/02 11:16:43;;;;;;;6.87;2.53;;;15.50;99.90;;;;;;5225976;28;20445;-49
2022/11/02 11:19:33;;;;;;;6.07;1.93;;;15.60;99.90;;;;;;5206901;28;20437;-49
2022/11/02 11:22:34;;;;;;;10.50;2.83;;;15.80;99.90;;;;;;5220944;28;20429;-50
2022/11/02 11:25:24;;;;;;;4.40;2.83;;;15.90;99.90;;;;;;5222094;28;20491;-51
2022/11/02 11:27:57;;;;;;;6.20;2.90;;;16.10;99.90;;;;;;5204081;28;20586;-49
2022/11/02 11:30:32;;;;;;;6.07;2.90;;;16.20;99.90;;;;;;5224375;28;20549;-49
2022/11/02 11:33:05;;;;;;;2.60;1.70;;;16.30;99.60;;;;;;5205088;28;20713;-50
2022/11/02 11:35:39;;;;;;;7.40;2.67;;;16.10;99.20;;;;;;5228797;28;20604;-48
2022/11/02 11:38:19;;;;;;;15.63;2.50;;;16.10;99.30;;;;;;5214590;28;20468;-50
2022/11/02 11:40:53;;;;;;;11.80;3.03;;;16.00;99.20;;;;;;5218577;28;20426;-52
2022/11/02 11:43:26;;;;;;;10.40;3.00;;;16.10;99.00;;;;;;5228488;28;20439;-50
2022/11/02 11:46:00;;;;;;;8.07;4.17;;;16.10;99.10;;;;;;5226335;28;20449;-52
2022/11/02 11:48:54;;;;;;;9.73;3.83;;;16.20;99.30;;;;;;5201179;28;20499;-49
2022/11/02 11:51:40;;;;;;;8.60;3.00;;;16.20;98.80;;;;;;5210604;28;20442;-50
2022/11/02 11:54:30;;;;;;;5.97;2.10;;;16.20;98.60;;;;;;5202618;28;20433;-50
2022/11/02 11:57:22;;;;;;;4.93;1.93;;;16.10;98.00;;;;;;5208447;28;20491;-51
2022/11/02 11:59:57;;;;;;;12.10;3.23;;;16.00;98.50;;;;;;5205467;28;20441;-48
2022/11/02 12:02:32;;;;;;;9.10;2.30;;;16.20;98.30;;;;;;5223283;28;20467;-52
2022/11/02 12:05:17;;;;;;;6.47;2.13;;;16.10;97.70;;;;;;5221645;28;20529;-49
2022/11/02 12:08:06;;;;;;;7.10;2.63;;;16.20;97.10;;;;;;5209304;28;20469;-50
2022/11/02 12:10:43;;;;;;;4.97;3.63;;;15.90;94.90;;;;;;5201555;28;20484;-50
2022/11/02 12:13:30;;;;;;;11.97;3.40;;;15.90;95.30;;;;;;5224127;28;20798;-52
2022/11/02 12:16:01;;;;;;;6.80;2.57;;;15.80;96.00;;;;;;5201263;28;20461;-51
2022/11/02 12:18:47;;;;;;;8.60;2.20;;;15.70;96.40;;;;;;5202789;28;20457;-49
2022/11/02 12:21:26;;;;;;;11.90;2.43;;;15.60;97.10;;;;;;5207580;28;20245;-51
2022/11/02 12:24:27;;;;;;;7.33;1.93;;;15.80;97.40;;;;;;5209626;28;20434;-50
2022/11/02 12:27:22;;;;;;;4.40;2.33;;;15.90;97.40;;;;;;5206984;28;20465;-50
2022/11/02 12:30:13;;;;;;;3.93;1.87;;;16.10;97.40;;;;;;5222949;28;20444;-48
2022/11/02 12:32:52;;;;;;;5.80;2.10;;;16.10;97.40;;;;;;5220427;28;20487;-51
2022/11/02 12:35:40;;;;;;;9.00;1.67;;;16.00;97.50;;;;;;5222466;28;20830;-50
2022/11/02 12:38:37;;;;;;;14.40;5.73;;;15.90;97.30;;;;;;5200408;28;20442;-49
2022/11/02 12:41:16;;;;;;;14.23;6.00;;;15.90;97.50;;;;;;5201509;28;20647;-49
2022/11/02 12:43:57;;;;;;;7.23;2.73;;;16.00;97.60;;;;;;5202783;28;20484;-49
2022/11/02 12:46:35;;;;;;;5.13;2.00;;;16.00;96.30;;;;;;5203258;28;20496;-51
2022/11/02 12:49:05;;;;;;;5.67;1.90;;;16.00;96.10;;;;;;5203616;28;20475;-50
2022/11/02 12:51:47;;;;;;;8.40;2.50;;;16.10;93.20;;;;;;5219911;28;20445;-50
2022/11/02 12:54:24;;;;;;;8.53;1.93;;;16.10;91.30;;;;;;5221876;28;20187;-50
2022/11/02 12:56:55;;;;;;;4.00;1.70;;;16.10;84.20;;;;;;5223827;28;20467;-50
2022/11/02 12:59:33;;;;;;;4.57;1.83;;;16.00;80.30;;;;;;5217927;28;20508;-52
2022/11/02 13:02:12;;;;;;;2.53;1.43;;;15.90;77.70;;;;;;5205073;28;20445;-49
2022/11/02 13:05:09;;;;;;;1.43;1.30;;;15.70;74.30;;;;;;5197947;28;20448;-50
2022/11/02 13:07:42;;;;;;;6.20;3.90;;;15.60;74.50;;;;;;5213966;28;20537;-50
2022/11/02 13:10:26;;;;;;;10.40;3.57;;;15.40;72.80;;;;;;5205495;28;20449;-49
2022/11/02 13:13:01;;;;;;;3.90;1.40;;;15.40;73.60;;;;;;5222141;28;20489;-49
2022/11/02 13:15:36;;;;;;;5.10;2.23;;;15.30;72.40;;;;;;5208238;28;21016;-50
2022/11/02 13:18:45;;;;;;;11.30;2.53;;;15.20;73.30;;;;;;5223900;28;20449;-48
2022/11/02 13:21:29;;;;;;;3.03;1.57;;;15.10;73.40;;;;;;5125191;28;20480;-51
2022/11/02 13:24:00;;;;;;;8.97;1.60;;;15.10;72.20;;;;;;5195932;28;20528;-49
2022/11/02 13:26:37;;;;;;;6.43;1.00;;;15.10;72.30;;;;;;5202631;28;21574;-49
2022/11/02 13:29:56;;;;;;;15.60;2.10;;;15.10;71.70;;;;;;5225508;28;20171;-49
2022/11/02 13:32:40;;;;;;;2.93;1.27;;;15.10;71.40;;;;;;5102442;28;20446;-48
2022/11/02 13:35:29;;;;;;;5.50;1.67;;;15.20;70.90;;;;;;5217313;28;20449;-50
2022/11/02 13:38:11;;;;;;;12.30;3.90;;;15.30;70.40;;;;;;5220583;28;20485;-50
2022/11/02 13:40:49;;;;;;;4.53;2.50;;;15.20;71.40;;;;;;5206003;28;20520;-50
2022/11/02 13:43:38;;;;;;;7.73;2.50;;;15.00;72.30;;;;;;5219843;28;20529;-51
2022/11/02 13:46:24;;;;;;;2.67;1.20;;;14.80;73.20;;;;;;5219489;28;20461;-50
2022/11/02 13:48:58;;;;;;;3.70;1.60;;;14.70;74.40;;;;;;5203790;28;20514;-48
2022/11/02 13:51:33;;;;;;;2.93;2.13;;;14.60;75.30;;;;;;5221656;28;20440;-49
2022/11/02 13:54:16;;;;;;;7.20;4.10;;;14.60;75.90;;;;;;5202345;28;20529;-52
2022/11/02 13:56:52;;;;;;;4.67;2.70;;;14.70;76.40;;;;;;5196580;28;20488;-54